Time;durP1;ratioP1;P1;durP2;ratioP2;P2;SDS_P1;SDS_P2;PMS_P1;PMS_P2;Temp;Humidity;BMP_temperature;BMP_pressure;BME280_temperature;BME280_humidity;BME280_pressure;Samples;Min_cycle;Max_cycle;Signal;HPM_P1;HPM_P2
2021/10/21 00:01:07;;;;;;;4.50;2.40;;;15.10;94.10;;;;;;5013859;28;20092;-77
2021/10/21 00:03:34;;;;;;;5.97;2.85;;;15.10;94.20;;;;;;5013770;28;20052;-77
2021/10/21 00:06:00;;;;;;;6.43;2.75;;;15.20;94.30;;;;;;5013833;28;20408;-77
2021/10/21 00:08:25;;;;;;;5.97;2.50;;;15.10;94.40;;;;;;5013527;28;20125;-77
2021/10/21 00:10:51;;;;;;;4.82;2.70;;;15.10;94.40;;;;;;5013709;28;20096;-77
2021/10/21 00:13:17;;;;;;;4.47;2.55;;;15.10;94.40;;;;;;5013666;28;20030;-77
2021/10/21 00:15:43;;;;;;;5.32;2.30;;;15.10;94.40;;;;;;5013147;28;20030;-77
2021/10/21 00:18:09;;;;;;;5.13;2.50;;;15.10;94.50;;;;;;5013366;28;20531;-77
2021/10/21 00:20:35;;;;;;;5.15;3.10;;;15.10;94.50;;;;;;5013217;28;20053;-77
2021/10/21 00:23:00;;;;;;;6.13;2.90;;;15.10;94.50;;;;;;5013545;28;20018;-77
2021/10/21 00:25:26;;;;;;;6.78;3.13;;;15.10;94.50;;;;;;5013436;28;20037;-77
2021/10/21 00:27:52;;;;;;;5.05;2.58;;;15.10;94.50;;;;;;5013366;28;20048;-77
2021/10/21 00:30:17;;;;;;;6.20;2.60;;;15.10;94.50;;;;;;5012859;28;20121;-77
2021/10/21 00:32:44;;;;;;;5.88;2.72;;;15.10;94.50;;;;;;5012616;28;20030;-76
2021/10/21 00:35:10;;;;;;;5.43;2.75;;;15.10;94.40;;;;;;5014558;28;20032;-77
2021/10/21 00:37:36;;;;;;;5.35;2.65;;;15.10;94.50;;;;;;5014339;28;20034;-77
2021/10/21 00:40:03;;;;;;;5.35;2.80;;;15.10;94.50;;;;;;5013088;28;20407;-77
2021/10/21 00:42:29;;;;;;;5.82;2.85;;;15.10;94.40;;;;;;5027606;28;20025;-77
2021/10/21 00:44:55;;;;;;;5.90;2.80;;;15.10;94.50;;;;;;5032918;28;20044;-77
2021/10/21 00:47:21;;;;;;;6.07;3.20;;;15.10;94.50;;;;;;5033976;28;20017;-77
2021/10/21 00:49:47;;;;;;;4.30;2.50;;;15.10;94.50;;;;;;5033755;28;20064;-77
2021/10/21 00:52:13;;;;;;;6.78;2.92;;;15.10;94.40;;;;;;5033997;28;20061;-77
2021/10/21 00:54:39;;;;;;;6.07;2.85;;;15.10;94.50;;;;;;5033988;28;20030;-77
2021/10/21 00:57:07;;;;;;;5.20;2.63;;;15.10;94.40;;;;;;5032573;28;20052;-77
2021/10/21 00:59:33;;;;;;;5.38;2.90;;;15.10;94.50;;;;;;5033519;28;20036;-77
2021/10/21 01:02:00;;;;;;;5.47;2.92;;;15.10;94.50;;;;;;5033824;28;20021;-77
2021/10/21 01:04:25;;;;;;;6.28;2.85;;;15.10;94.40;;;;;;5032564;28;20028;-77
2021/10/21 01:06:51;;;;;;;6.93;3.00;;;15.10;94.40;;;;;;5033687;28;20405;-77
2021/10/21 01:09:18;;;;;;;5.80;2.95;;;15.10;94.40;;;;;;5032324;28;20041;-77
2021/10/21 01:11:44;;;;;;;8.00;3.00;;;15.10;94.40;;;;;;5032339;28;20071;-77
2021/10/21 01:14:10;;;;;;;4.70;2.55;;;15.10;94.40;;;;;;5032367;28;20026;-77
2021/10/21 01:16:39;;;;;;;5.60;2.90;;;15.10;94.40;;;;;;5032927;28;20105;-77
2021/10/21 01:19:31;;;;;;;8.02;3.15;;;15.10;94.40;;;;;;5033238;28;20056;-77
2021/10/21 01:21:57;;;;;;;7.93;3.33;;;15.10;94.40;;;;;;5032283;28;20034;-77
2021/10/21 01:24:24;;;;;;;6.47;2.90;;;15.10;94.40;;;;;;5032119;28;20128;-77
2021/10/21 01:26:54;;;;;;;5.72;3.00;;;15.10;94.40;;;;;;5031960;28;20142;-77
2021/10/21 01:29:23;;;;;;;7.07;2.90;;;15.10;94.30;;;;;;5031794;28;20118;-77
2021/10/21 01:31:49;;;;;;;7.47;2.88;;;15.10;94.30;;;;;;5031977;28;20021;-76
2021/10/21 01:34:15;;;;;;;6.40;3.00;;;15.10;94.30;;;;;;5033235;28;20036;-77
2021/10/21 01:36:43;;;;;;;6.55;3.10;;;15.10;94.30;;;;;;5033060;28;20030;-77
2021/10/21 01:39:11;;;;;;;5.65;2.90;;;15.10;94.30;;;;;;5032786;28;20037;-77
2021/10/21 01:41:37;;;;;;;5.60;2.90;;;15.10;94.30;;;;;;5032995;28;20021;-77
2021/10/21 01:44:05;;;;;;;6.18;2.70;;;15.10;94.30;;;;;;5032775;28;20471;-77
2021/10/21 01:46:31;;;;;;;6.30;3.05;;;15.10;94.30;;;;;;5032861;28;20029;-77
2021/10/21 01:48:57;;;;;;;10.70;3.20;;;15.10;94.40;;;;;;5032736;28;20156;-77
2021/10/21 01:51:23;;;;;;;6.25;2.92;;;15.10;94.40;;;;;;5032039;28;20036;-77
2021/10/21 01:53:48;;;;;;;7.40;2.80;;;15.10;94.40;;;;;;5033341;28;20527;-77
2021/10/21 01:56:15;;;;;;;7.43;3.03;;;15.10;94.30;;;;;;5031859;28;20483;-78
2021/10/21 01:58:41;;;;;;;6.50;2.97;;;15.10;94.30;;;;;;5032305;28;20025;-77
2021/10/21 02:01:07;;;;;;;5.68;2.80;;;15.10;94.10;;;;;;5031476;28;20026;-77
2021/10/21 02:03:32;;;;;;;5.07;2.80;;;15.10;94.00;;;;;;5031425;28;20021;-77
2021/10/21 02:05:58;;;;;;;4.70;2.35;;;15.20;94.10;;;;;;5032760;28;20395;-77
2021/10/21 02:08:23;;;;;;;6.60;2.80;;;15.20;94.20;;;;;;5031007;28;20041;-77
2021/10/21 02:10:49;;;;;;;6.25;2.70;;;15.20;94.10;;;;;;5031359;28;20113;-77
2021/10/21 02:13:15;;;;;;;6.10;2.75;;;15.20;94.10;;;;;;5032563;28;20034;-77
2021/10/21 02:15:41;;;;;;;6.65;2.67;;;15.20;94.10;;;;;;5032032;28;20108;-77
2021/10/21 02:18:07;;;;;;;7.20;2.70;;;15.20;94.20;;;;;;5031237;28;20475;-77
2021/10/21 02:20:32;;;;;;;6.05;2.70;;;15.20;94.10;;;;;;5032258;28;20018;-77
2021/10/21 02:22:58;;;;;;;5.00;2.53;;;15.20;94.20;;;;;;5032461;28;20025;-77
2021/10/21 02:25:24;;;;;;;6.13;2.90;;;15.20;94.10;;;;;;5031873;28;20021;-77
2021/10/21 02:27:50;;;;;;;10.98;2.95;;;15.20;94.20;;;;;;5032591;28;20030;-77
2021/10/21 02:30:17;;;;;;;6.88;2.30;;;15.20;94.30;;;;;;5032207;28;20056;-78
2021/10/21 02:32:43;;;;;;;6.75;2.60;;;15.20;94.30;;;;;;5032389;28;20065;-78
2021/10/21 02:35:10;;;;;;;5.07;2.53;;;15.20;94.30;;;;;;5032423;28;20049;-78
2021/10/21 02:37:36;;;;;;;5.07;2.60;;;15.20;94.40;;;;;;5031126;28;20053;-77
2021/10/21 02:40:04;;;;;;;5.57;2.80;;;15.20;94.40;;;;;;5032720;28;20498;-77
2021/10/21 02:42:30;;;;;;;6.47;2.67;;;15.20;94.50;;;;;;5032405;28;20033;-77
2021/10/21 02:44:55;;;;;;;5.05;2.45;;;15.20;94.60;;;;;;5032301;28;20502;-77
2021/10/21 02:47:21;;;;;;;4.72;2.60;;;15.20;94.70;;;;;;5026038;28;20061;-78
2021/10/21 02:49:46;;;;;;;4.55;2.40;;;15.10;94.70;;;;;;5032387;28;20025;-77
2021/10/21 02:52:12;;;;;;;4.70;2.42;;;15.10;94.70;;;;;;5033148;28;20029;-78
2021/10/21 02:54:38;;;;;;;6.18;2.35;;;15.10;94.70;;;;;;5034769;28;20033;-78
2021/10/21 02:57:03;;;;;;;4.85;2.47;;;15.20;94.80;;;;;;5037458;28;20104;-78
2021/10/21 02:59:29;;;;;;;4.80;2.13;;;15.10;94.80;;;;;;5037180;28;20112;-78
2021/10/21 03:01:55;;;;;;;4.97;2.20;;;15.10;94.80;;;;;;5037247;28;20024;-78
2021/10/21 03:04:20;;;;;;;5.85;2.00;;;15.10;94.80;;;;;;5036324;28;20025;-78
2021/10/21 03:06:46;;;;;;;4.32;2.05;;;15.10;94.80;;;;;;5036694;28;20503;-77
2021/10/21 03:09:11;;;;;;;4.15;2.08;;;15.10;94.80;;;;;;5036868;28;20441;-78
2021/10/21 03:11:37;;;;;;;5.78;2.15;;;15.10;94.80;;;;;;5036917;28;20437;-78
2021/10/21 03:14:03;;;;;;;6.40;2.13;;;15.10;94.80;;;;;;5035319;28;20025;-78
2021/10/21 03:16:34;;;;;;;3.92;2.10;;;15.10;94.80;;;;;;5035091;28;20076;-78
2021/10/21 03:19:00;;;;;;;3.95;2.10;;;15.10;94.70;;;;;;5035065;28;20112;-78
2021/10/21 03:21:26;;;;;;;5.20;2.22;;;15.10;94.70;;;;;;5035426;28;20487;-78
2021/10/21 03:23:51;;;;;;;4.68;2.00;;;15.10;94.70;;;;;;5035032;28;20072;-78
2021/10/21 03:26:17;;;;;;;4.30;2.10;;;15.10;94.70;;;;;;5035096;28;20045;-78
2021/10/21 03:28:42;;;;;;;5.22;1.90;;;15.10;94.70;;;;;;5034466;28;20036;-78
2021/10/21 03:31:08;;;;;;;4.90;1.88;;;15.10;94.70;;;;;;5034573;28;20122;-78
2021/10/21 03:33:33;;;;;;;5.88;2.00;;;15.10;94.70;;;;;;5034884;28;20380;-78
2021/10/21 03:35:59;;;;;;;4.50;1.90;;;15.10;94.60;;;;;;5036122;28;20395;-78
2021/10/21 03:38:24;;;;;;;3.20;1.67;;;15.10;94.60;;;;;;5034669;28;20513;-77
2021/10/21 03:40:50;;;;;;;5.40;1.70;;;15.10;94.50;;;;;;5034388;28;20018;-78
2021/10/21 03:43:15;;;;;;;2.95;1.35;;;15.10;94.30;;;;;;5034257;28;20030;-77
2021/10/21 03:45:41;;;;;;;4.40;1.42;;;15.10;94.10;;;;;;5034428;28;20048;-78
2021/10/21 03:48:07;;;;;;;5.53;1.50;;;15.10;94.00;;;;;;5034326;28;20600;-78
2021/10/21 03:50:32;;;;;;;2.30;1.35;;;15.10;94.00;;;;;;5034274;28;20112;-78
2021/10/21 03:52:58;;;;;;;3.72;1.50;;;15.10;93.90;;;;;;5034207;28;20029;-77
2021/10/21 03:55:24;;;;;;;3.78;1.27;;;15.10;93.90;;;;;;5034221;28;20036;-77
2021/10/21 03:57:49;;;;;;;3.50;1.27;;;15.10;93.80;;;;;;5033830;28;20106;-77
2021/10/21 04:00:15;;;;;;;4.40;1.52;;;15.10;93.70;;;;;;5033938;28;20017;-77
2021/10/21 04:02:41;;;;;;;2.50;1.20;;;15.10;93.70;;;;;;5034175;28;20120;-77
2021/10/21 04:05:08;;;;;;;4.20;1.23;;;15.10;93.70;;;;;;5033810;28;20029;-77
2021/10/21 04:07:34;;;;;;;3.70;1.60;;;15.10;93.70;;;;;;5033851;28;20037;-78
2021/10/21 04:10:00;;;;;;;3.17;1.10;;;15.10;93.80;;;;;;5034844;28;20104;-77
2021/10/21 04:12:26;;;;;;;4.82;1.50;;;15.10;93.70;;;;;;5033888;28;20111;-77
2021/10/21 04:14:51;;;;;;;2.83;1.05;;;15.10;93.60;;;;;;5033839;28;20069;-77
2021/10/21 04:17:19;;;;;;;3.65;1.20;;;15.10;93.50;;;;;;5033812;28;20134;-77
2021/10/21 04:19:46;;;;;;;2.63;1.02;;;15.10;93.40;;;;;;5033637;28;20032;-78
2021/10/21 04:22:11;;;;;;;5.15;1.20;;;15.10;93.50;;;;;;5033583;28;20406;-78
2021/10/21 04:24:37;;;;;;;2.47;1.00;;;15.10;93.50;;;;;;5033681;28;20025;-77
2021/10/21 04:27:02;;;;;;;2.90;1.20;;;15.10;93.40;;;;;;5033525;28;20021;-78
2021/10/21 04:29:28;;;;;;;4.60;1.13;;;15.00;93.30;;;;;;5034506;28;20033;-78
2021/10/21 04:31:54;;;;;;;2.95;1.00;;;15.00;93.40;;;;;;5034552;28;20387;-78
2021/10/21 04:34:20;;;;;;;3.95;1.13;;;15.10;93.20;;;;;;5034640;28;20017;-77
2021/10/21 04:36:45;;;;;;;2.85;0.90;;;15.00;93.20;;;;;;5034647;28;20040;-77
2021/10/21 04:39:11;;;;;;;2.67;1.00;;;15.00;93.20;;;;;;5034243;28;20029;-78
2021/10/21 04:41:36;;;;;;;3.78;1.40;;;15.10;93.20;;;;;;5033852;28;20529;-77
2021/10/21 04:44:02;;;;;;;2.85;1.00;;;15.10;93.00;;;;;;5033212;28;20021;-78
2021/10/21 04:46:27;;;;;;;2.95;0.90;;;15.10;93.00;;;;;;5034590;28;20033;-78
2021/10/21 04:48:53;;;;;;;3.85;1.15;;;15.10;92.90;;;;;;5029098;28;20030;-77
2021/10/21 04:51:18;;;;;;;4.18;1.00;;;15.10;92.80;;;;;;5029097;28;20020;-78
2021/10/21 04:53:44;;;;;;;2.95;0.80;;;15.10;92.70;;;;;;5033908;28;20025;-78
2021/10/21 04:56:11;;;;;;;4.22;1.08;;;15.10;92.70;;;;;;5044141;28;20021;-78
2021/10/21 04:58:37;;;;;;;4.95;1.00;;;15.20;92.70;;;;;;5053762;28;20025;-78
2021/10/21 05:01:02;;;;;;;3.75;1.08;;;15.10;92.60;;;;;;5054166;28;20108;-78
2021/10/21 05:03:28;;;;;;;5.20;1.10;;;15.10;92.50;;;;;;5054315;28;20047;-80
2021/10/21 05:05:53;;;;;;;2.97;0.85;;;15.10;92.50;;;;;;5052791;28;20028;-78
2021/10/21 05:08:19;;;;;;;3.75;0.93;;;15.10;92.40;;;;;;5053616;28;20040;-79
2021/10/21 05:10:45;;;;;;;3.20;0.80;;;15.20;92.40;;;;;;5053695;28;20039;-82
2021/10/21 05:13:12;;;;;;;3.35;1.00;;;15.20;92.40;;;;;;5046302;28;20806;-79
2021/10/21 05:15:38;;;;;;;4.35;1.17;;;15.20;92.30;;;;;;5033265;28;20056;-82
2021/10/21 05:18:04;;;;;;;2.50;1.10;;;15.10;92.30;;;;;;5035621;28;20033;-79
2021/10/21 05:20:29;;;;;;;5.07;1.13;;;15.10;92.20;;;;;;5036314;28;20115;-79
2021/10/21 05:22:55;;;;;;;4.38;1.10;;;15.20;92.20;;;;;;5035637;28;20022;-79
2021/10/21 05:25:20;;;;;;;3.47;0.85;;;15.10;92.10;;;;;;5034758;28;20021;-78
2021/10/21 05:27:46;;;;;;;3.85;1.08;;;15.10;92.10;;;;;;5035985;28;20112;-81
2021/10/21 05:30:11;;;;;;;2.58;0.90;;;15.10;92.10;;;;;;5036469;28;20108;-80
2021/10/21 05:32:37;;;;;;;3.03;0.90;;;15.10;92.10;;;;;;5037020;28;20093;-80
2021/10/21 05:35:03;;;;;;;3.22;0.95;;;15.00;92.10;;;;;;5035917;28;20025;-80
2021/10/21 05:37:29;;;;;;;6.00;1.00;;;15.00;92.20;;;;;;5033403;28;20049;-80
2021/10/21 05:39:55;;;;;;;2.00;0.70;;;15.00;92.10;;;;;;5015543;28;20037;-80
2021/10/21 05:42:21;;;;;;;4.35;0.90;;;15.00;92.10;;;;;;5014705;28;20037;-80
2021/10/21 05:44:46;;;;;;;1.67;0.70;;;15.00;92.10;;;;;;5015525;28;20045;-80
2021/10/21 05:47:12;;;;;;;5.43;1.33;;;15.00;92.20;;;;;;5014944;28;20057;-79
2021/10/21 05:49:37;;;;;;;4.32;0.80;;;15.00;92.20;;;;;;5015269;28;20040;-80
2021/10/21 05:52:03;;;;;;;3.55;0.70;;;15.00;92.20;;;;;;5014586;28;20022;-80
2021/10/21 05:54:29;;;;;;;4.35;0.85;;;15.00;91.60;;;;;;5013221;28;20022;-80
2021/10/21 05:56:54;;;;;;;3.15;0.80;;;14.90;91.70;;;;;;5012811;28;20108;-80
2021/10/21 05:59:20;;;;;;;3.90;0.80;;;15.00;91.60;;;;;;5013665;28;20525;-80
2021/10/21 06:01:45;;;;;;;2.45;0.80;;;14.80;91.60;;;;;;5014625;28;20022;-80
2021/10/21 06:04:11;;;;;;;2.85;0.70;;;14.90;91.60;;;;;;5014618;28;20468;-80
2021/10/21 06:06:37;;;;;;;3.25;0.80;;;15.00;91.70;;;;;;5014470;28;20025;-80
2021/10/21 06:09:04;;;;;;;5.13;1.10;;;15.00;91.80;;;;;;5026838;28;20033;-79
2021/10/21 06:11:31;;;;;;;3.35;0.90;;;14.90;91.90;;;;;;5034101;28;20474;-80
2021/10/21 06:13:58;;;;;;;2.30;0.70;;;15.00;91.80;;;;;;5034747;28;20048;-80
2021/10/21 06:16:23;;;;;;;3.47;0.88;;;15.00;91.80;;;;;;5035307;28;20030;-80
2021/10/21 06:18:49;;;;;;;4.97;0.80;;;15.00;91.80;;;;;;5035009;28;20151;-80
2021/10/21 06:21:21;;;;;;;2.17;0.60;;;15.50;92.00;;;;;;5033928;28;20060;-80
2021/10/21 06:23:46;;;;;;;1.85;0.70;;;15.00;91.90;;;;;;5034056;28;20113;-81
2021/10/21 06:26:13;;;;;;;3.97;0.82;;;14.90;91.90;;;;;;5034707;28;20053;-80
2021/10/21 06:28:39;;;;;;;2.65;0.73;;;15.00;91.90;;;;;;5032890;28;20040;-80
2021/10/21 06:31:05;;;;;;;3.03;0.88;;;15.00;91.90;;;;;;5035941;28;20025;-82
2021/10/21 06:33:30;;;;;;;4.88;0.88;;;15.00;91.90;;;;;;5037772;28;20024;-79
2021/10/21 06:35:56;;;;;;;1.67;0.68;;;15.00;91.90;;;;;;5038718;28;20060;-79
2021/10/21 06:38:22;;;;;;;3.65;0.80;;;15.00;91.90;;;;;;5037533;28;20076;-78
2021/10/21 06:40:47;;;;;;;5.07;0.82;;;15.00;91.90;;;;;;5039142;28;20036;-79
2021/10/21 06:43:13;;;;;;;2.35;0.70;;;15.00;91.90;;;;;;5037728;28;20514;-79
2021/10/21 06:45:38;;;;;;;3.38;0.80;;;15.00;91.90;;;;;;5037470;28;20025;-79
2021/10/21 06:48:04;;;;;;;4.55;0.82;;;15.00;91.90;;;;;;5037624;28;20025;-80
2021/10/21 06:50:30;;;;;;;3.83;0.80;;;15.00;91.90;;;;;;5036773;28;20030;-81
2021/10/21 06:52:56;;;;;;;2.95;1.02;;;15.00;91.90;;;;;;5030173;28;20025;-81
2021/10/21 06:55:22;;;;;;;6.03;1.15;;;15.00;91.90;;;;;;5029316;28;20037;-79
2021/10/21 06:57:51;;;;;;;3.25;0.90;;;15.00;91.90;;;;;;5034450;28;20044;-80
2021/10/21 07:00:18;;;;;;;3.92;1.00;;;15.00;92.00;;;;;;5037345;28;20083;-78
2021/10/21 07:02:44;;;;;;;2.72;0.95;;;15.00;91.90;;;;;;5037754;28;20064;-80
2021/10/21 07:05:12;;;;;;;4.60;1.08;;;15.00;91.90;;;;;;5021796;28;20026;-79
2021/10/21 07:07:38;;;;;;;3.78;0.90;;;15.00;91.90;;;;;;5017548;28;20038;-80
2021/10/21 07:10:05;;;;;;;5.68;1.05;;;15.00;91.90;;;;;;5017638;28;20068;-80
2021/10/21 07:12:32;;;;;;;4.10;0.90;;;15.00;91.90;;;;;;5032517;28;20032;-79
2021/10/21 07:14:58;;;;;;;4.07;1.13;;;15.00;91.90;;;;;;5036936;28;20029;-79
2021/10/21 07:17:24;;;;;;;3.70;1.20;;;14.90;91.90;;;;;;5035680;28;20089;-79
2021/10/21 07:19:49;;;;;;;6.68;1.20;;;15.00;92.00;;;;;;5035994;28;20053;-79
2021/10/21 07:22:16;;;;;;;2.92;1.00;;;15.00;92.00;;;;;;5036051;28;20026;-79
2021/10/21 07:24:43;;;;;;;2.05;0.93;;;15.00;92.00;;;;;;5036303;28;20022;-79
2021/10/21 07:27:09;;;;;;;4.40;1.10;;;15.00;92.00;;;;;;5035388;28;20029;-79
2021/10/21 07:29:35;;;;;;;2.20;1.05;;;15.00;92.00;;;;;;5035915;28;20116;-79
2021/10/21 07:32:01;;;;;;;4.07;1.17;;;15.00;92.00;;;;;;5036212;28;20107;-79
2021/10/21 07:34:27;;;;;;;5.72;1.48;;;15.00;92.00;;;;;;5034740;28;20029;-78
2021/10/21 07:36:52;;;;;;;3.63;1.20;;;15.00;92.00;;;;;;5036446;28;20029;-79
2021/10/21 07:39:20;;;;;;;4.35;1.20;;;15.00;92.00;;;;;;5036221;28;20033;-80
2021/10/21 07:41:46;;;;;;;5.13;1.10;;;15.10;92.10;;;;;;5034861;28;20513;-78
2021/10/21 07:44:11;;;;;;;4.07;1.20;;;15.10;92.10;;;;;;5036757;28;20033;-78
2021/10/21 07:46:37;;;;;;;4.72;1.20;;;15.00;92.00;;;;;;5035411;28;20029;-79
2021/10/21 07:49:02;;;;;;;4.25;1.10;;;15.10;92.10;;;;;;5035429;28;20037;-79
2021/10/21 07:51:31;;;;;;;5.05;1.05;;;15.10;92.00;;;;;;5035472;28;20132;-79
2021/10/21 07:53:57;;;;;;;3.58;1.05;;;15.10;91.90;;;;;;5035447;28;20025;-78
2021/10/21 07:56:23;;;;;;;4.53;1.00;;;15.10;91.90;;;;;;5034882;28;20558;-79
2021/10/21 07:58:49;;;;;;;2.58;0.70;;;15.10;91.90;;;;;;5035102;28;20117;-80
2021/10/21 08:01:15;;;;;;;1.25;0.70;;;15.10;91.90;;;;;;5035228;28;20021;-80
2021/10/21 08:03:41;;;;;;;4.03;0.90;;;15.10;91.90;;;;;;5035830;28;20028;-78
2021/10/21 08:06:06;;;;;;;3.67;0.80;;;15.10;91.90;;;;;;5034696;28;20017;-79
2021/10/21 08:08:32;;;;;;;3.25;0.80;;;15.10;91.80;;;;;;5035298;28;20033;-79
2021/10/21 08:10:57;;;;;;;2.63;0.70;;;15.10;91.80;;;;;;5036445;28;20034;-79
2021/10/21 08:13:23;;;;;;;3.30;0.80;;;15.10;91.70;;;;;;5035535;28;20029;-80
2021/10/21 08:15:50;;;;;;;5.55;1.00;;;15.10;91.70;;;;;;5036688;28;20578;-79
2021/10/21 08:18:16;;;;;;;2.50;0.57;;;15.10;91.70;;;;;;5036219;28;20021;-79
2021/10/21 08:20:43;;;;;;;2.05;0.70;;;15.10;91.70;;;;;;5034951;28;20033;-79
2021/10/21 08:23:09;;;;;;;1.67;0.60;;;15.00;91.80;;;;;;5035224;28;20084;-79
2021/10/21 08:25:35;;;;;;;1.20;0.60;;;15.10;91.90;;;;;;5034887;28;20446;-79
2021/10/21 08:28:00;;;;;;;1.67;0.65;;;15.00;91.80;;;;;;5035366;28;20558;-79
2021/10/21 08:30:26;;;;;;;1.13;0.65;;;15.00;91.80;;;;;;5035207;28;20029;-81
2021/10/21 08:32:57;;;;;;;0.80;0.50;;;15.00;91.80;;;;;;5035714;28;20056;-79
2021/10/21 08:35:24;;;;;;;1.60;0.60;;;15.00;91.80;;;;;;5035389;28;20026;-79
2021/10/21 08:37:50;;;;;;;2.47;0.70;;;15.00;91.80;;;;;;5034655;28;20300;-79
2021/10/21 08:40:16;;;;;;;1.65;0.60;;;15.00;91.80;;;;;;5034998;28;20025;-80
2021/10/21 08:42:46;;;;;;;2.55;0.70;;;15.00;91.80;;;;;;5035139;28;20022;-79
2021/10/21 08:45:13;;;;;;;1.33;0.40;;;15.00;91.80;;;;;;5034978;28;20021;-79
2021/10/21 08:47:41;;;;;;;0.95;0.40;;;15.00;91.80;;;;;;5035041;28;20068;-79
2021/10/21 08:50:08;;;;;;;1.55;0.60;;;15.00;91.80;;;;;;5034788;28;20017;-79
2021/10/21 08:52:34;;;;;;;1.38;0.40;;;15.00;91.80;;;;;;5033898;28;20028;-79
2021/10/21 08:55:00;;;;;;;4.72;0.70;;;15.00;91.80;;;;;;5034608;28;20018;-79
2021/10/21 08:57:27;;;;;;;1.70;0.63;;;15.00;91.80;;;;;;5034871;28;20075;-79
2021/10/21 08:59:54;;;;;;;1.52;0.50;;;15.00;91.80;;;;;;5036265;28;20064;-80
2021/10/21 09:02:22;;;;;;;0.60;0.43;;;15.00;91.70;;;;;;5036036;28;20494;-79
2021/10/21 09:10:09;;;;;;;1.35;0.50;;;15.00;91.70;;;;;;5034901;28;20033;-78
2021/10/21 09:12:43;;;;;;;2.15;0.77;;;15.00;91.70;;;;;;5035639;28;20553;-79
2021/10/21 09:15:13;;;;;;;1.63;0.55;;;15.00;91.70;;;;;;5024342;28;20026;-79
2021/10/21 09:17:39;;;;;;;2.38;0.50;;;15.00;91.70;;;;;;5029092;28;20128;-79
2021/10/21 09:20:38;;;;;;;1.40;0.50;;;15.00;91.70;;;;;;5032819;28;20013;-78
2021/10/21 09:23:09;;;;;;;2.83;0.50;;;15.00;91.70;;;;;;5034281;28;20084;-78
2021/10/21 09:25:36;;;;;;;2.35;0.60;;;15.00;91.70;;;;;;5033574;28;20484;-78
2021/10/21 09:28:27;;;;;;;1.88;0.50;;;15.00;91.60;;;;;;5033017;28;20030;-78
2021/10/21 09:31:08;;;;;;;1.45;0.40;;;15.00;91.60;;;;;;5036020;28;20060;-78
2021/10/21 09:33:56;;;;;;;1.95;0.43;;;15.10;91.60;;;;;;5032899;28;20082;-78
2021/10/21 09:36:22;;;;;;;1.88;0.50;;;15.00;91.50;;;;;;5035079;28;20026;-79
2021/10/21 09:38:54;;;;;;;1.95;0.60;;;15.10;91.50;;;;;;5034625;28;20503;-79
2021/10/21 09:41:25;;;;;;;2.88;0.68;;;15.10;91.60;;;;;;5034658;28;20475;-79
2021/10/21 09:43:52;;;;;;;2.27;0.67;;;15.00;91.50;;;;;;5032364;28;20056;-78
2021/10/21 09:46:33;;;;;;;2.92;0.70;;;15.10;91.60;;;;;;5034047;28;20271;-79
2021/10/21 09:49:19;;;;;;;2.28;0.73;;;15.00;91.50;;;;;;5033713;28;20034;-78
2021/10/21 09:51:45;;;;;;;1.80;0.70;;;15.00;91.50;;;;;;5031739;28;20025;-78
2021/10/21 09:54:11;;;;;;;2.85;0.60;;;15.10;91.50;;;;;;5034366;28;20057;-78
2021/10/21 09:56:56;;;;;;;3.92;0.68;;;15.10;91.40;;;;;;5032530;28;20055;-78
2021/10/21 09:59:30;;;;;;;4.38;0.80;;;15.10;91.40;;;;;;5032550;28;20108;-78
2021/10/21 10:02:04;;;;;;;2.95;0.80;;;15.10;91.30;;;;;;5032828;28;20021;-78
2021/10/21 10:04:30;;;;;;;3.45;0.90;;;15.10;91.40;;;;;;5032480;28;20021;-79
2021/10/21 10:06:59;;;;;;;2.53;0.73;;;15.10;91.30;;;;;;5032495;28;20018;-78
2021/10/21 10:09:34;;;;;;;4.35;1.00;;;15.10;91.30;;;;;;5031245;28;20029;-78
2021/10/21 10:12:04;;;;;;;4.65;0.95;;;15.10;91.30;;;;;;5033037;28;20025;-79
2021/10/21 10:14:30;;;;;;;3.88;0.90;;;15.10;91.30;;;;;;5033915;28;20045;-78
2021/10/21 10:16:58;;;;;;;3.55;0.93;;;15.10;91.20;;;;;;5033101;28;20026;-78
2021/10/21 10:19:24;;;;;;;6.32;1.13;;;15.10;91.20;;;;;;5032454;28;20399;-78
2021/10/21 10:21:55;;;;;;;3.83;0.98;;;15.10;91.10;;;;;;5033914;28;20029;-78
2021/10/21 10:24:32;;;;;;;3.03;0.93;;;15.10;91.00;;;;;;5033510;28;20018;-79
2021/10/21 10:27:00;;;;;;;3.30;0.55;;;15.10;91.00;;;;;;5033550;28;20612;-78
2021/10/21 10:29:31;;;;;;;3.42;1.05;;;15.20;91.10;;;;;;5035284;28;20116;-78
2021/10/21 10:31:59;;;;;;;4.35;1.00;;;15.10;90.90;;;;;;5033135;28;20036;-78
2021/10/21 10:34:35;;;;;;;6.50;1.02;;;15.20;90.90;;;;;;5032905;28;20034;-78
2021/10/21 10:37:29;;;;;;;6.20;1.17;;;15.20;90.70;;;;;;5033082;28;20112;-78
2021/10/21 10:39:57;;;;;;;7.28;1.13;;;15.20;90.60;;;;;;5019371;28;20034;-78
2021/10/21 10:42:28;;;;;;;7.07;1.10;;;15.30;90.40;;;;;;5033859;28;20433;-78
2021/10/21 10:44:54;;;;;;;11.25;1.55;;;15.30;90.30;;;;;;5032222;28;20072;-78
2021/10/21 10:47:48;;;;;;;6.38;1.45;;;15.30;90.30;;;;;;5033409;28;20339;-79
2021/10/21 10:50:26;;;;;;;9.07;1.23;;;15.40;90.20;;;;;;5032152;28;20108;-78
2021/10/21 10:52:55;;;;;;;7.25;1.23;;;15.40;90.10;;;;;;5033508;28;20372;-78
2021/10/21 10:55:39;;;;;;;8.13;1.35;;;15.40;90.00;;;;;;5033917;28;20028;-79
2021/10/21 10:58:30;;;;;;;6.82;1.35;;;15.50;89.80;;;;;;5032018;28;20033;-78
2021/10/21 11:01:00;;;;;;;9.98;1.40;;;15.50;89.40;;;;;;5033476;28;20029;-77
2021/10/21 11:03:33;;;;;;;7.07;1.50;;;15.50;89.20;;;;;;5032185;28;20491;-79
2021/10/21 11:06:03;;;;;;;5.97;1.33;;;15.50;89.20;;;;;;5033449;28;20109;-78
2021/10/21 11:09:06;;;;;;;5.72;1.20;;;15.50;89.30;;;;;;5031779;28;20083;-78
2021/10/21 11:11:51;;;;;;;8.48;1.30;;;15.40;89.30;;;;;;5001279;28;20044;-79
2021/10/21 11:14:38;;;;;;;6.05;1.42;;;15.40;89.40;;;;;;5031879;28;20034;-79
2021/10/21 11:17:05;;;;;;;6.28;1.30;;;15.30;89.30;;;;;;5036459;28;20033;-78
2021/10/21 11:19:41;;;;;;;5.80;1.20;;;15.30;89.30;;;;;;5035802;28;20503;-79
2021/10/21 11:22:08;;;;;;;6.43;1.30;;;15.30;89.30;;;;;;5037602;28;20029;-79
2021/10/21 11:24:49;;;;;;;6.13;1.35;;;15.30;89.20;;;;;;5036546;28;20025;-79
2021/10/21 11:27:34;;;;;;;7.88;1.73;;;15.30;89.20;;;;;;5037682;28;20025;-80
2021/10/21 11:30:23;;;;;;;7.30;1.48;;;15.30;89.30;;;;;;5036736;28;20365;-81
2021/10/21 11:32:50;;;;;;;6.45;1.70;;;15.30;88.60;;;;;;5034925;28;20120;-79
2021/10/21 11:35:22;;;;;;;6.40;1.63;;;15.20;88.60;;;;;;5036191;28;20028;-79
2021/10/21 11:38:12;;;;;;;7.30;1.20;;;15.20;88.60;;;;;;5036058;28;20033;-79
2021/10/21 11:40:49;;;;;;;7.00;1.10;;;15.20;88.90;;;;;;5029128;28;20115;-79
2021/10/21 11:43:25;;;;;;;6.00;1.33;;;15.20;89.10;;;;;;5036184;28;20426;-79
2021/10/21 11:45:56;;;;;;;3.30;1.00;;;15.20;89.00;;;;;;5034747;28;20022;-79
2021/10/21 11:48:27;;;;;;;7.45;1.27;;;15.20;89.10;;;;;;5034742;28;20022;-79
2021/10/21 11:50:52;;;;;;;6.55;1.42;;;15.20;89.10;;;;;;5036457;28;20037;-79
2021/10/21 11:53:20;;;;;;;5.30;1.17;;;15.10;89.10;;;;;;5035205;28;20033;-79
2021/10/21 11:55:47;;;;;;;4.47;1.15;;;15.10;89.10;;;;;;5036142;28;20033;-79
2021/10/21 11:58:23;;;;;;;4.20;1.23;;;15.20;89.20;;;;;;5036344;28;20021;-78
2021/10/21 12:00:50;;;;;;;4.47;1.10;;;15.20;89.50;;;;;;5036629;28;20021;-79
2021/10/21 12:03:16;;;;;;;7.47;1.30;;;15.20;89.10;;;;;;5036800;28;20056;-79
2021/10/21 12:05:43;;;;;;;3.50;1.00;;;15.10;88.80;;;;;;5035245;28;20021;-79
2021/10/21 12:08:12;;;;;;;6.95;1.52;;;15.10;88.80;;;;;;5036133;28;20036;-79
2021/10/21 12:10:40;;;;;;;3.95;1.10;;;15.10;88.90;;;;;;5036266;28;20120;-79
2021/10/21 12:13:07;;;;;;;6.47;1.13;;;15.10;89.10;;;;;;5036106;28;20105;-79
2021/10/21 12:15:36;;;;;;;2.85;0.75;;;15.10;88.90;;;;;;5036965;28;20027;-79
2021/10/21 12:18:10;;;;;;;6.28;1.10;;;15.10;89.00;;;;;;5036553;28;20059;-79
2021/10/21 12:20:40;;;;;;;3.83;1.00;;;15.10;88.70;;;;;;5036204;28;20079;-79
2021/10/21 12:23:14;;;;;;;3.10;0.90;;;15.10;88.70;;;;;;5035785;28;20368;-79
2021/10/21 12:25:40;;;;;;;4.53;1.10;;;15.10;88.70;;;;;;5034215;28;20099;-79
2021/10/21 12:28:06;;;;;;;3.92;1.10;;;15.10;88.90;;;;;;5033342;28;20479;-79
2021/10/21 12:30:36;;;;;;;6.35;1.52;;;15.10;88.70;;;;;;5034451;28;20021;-79
2021/10/21 12:33:31;;;;;;;3.42;1.00;;;15.20;88.60;;;;;;5035241;28;20049;-79
2021/10/21 12:36:03;;;;;;;2.97;1.10;;;15.10;88.70;;;;;;5023318;28;20030;-80
2021/10/21 12:38:41;;;;;;;5.05;1.42;;;15.10;88.60;;;;;;5036201;28;20079;-79
2021/10/21 12:41:07;;;;;;;3.42;1.05;;;15.10;88.60;;;;;;5036137;28;20463;-79
2021/10/21 12:43:33;;;;;;;2.78;1.00;;;15.10;88.50;;;;;;5035564;28;20025;-79
2021/10/21 12:46:04;;;;;;;4.28;1.13;;;15.10;88.50;;;;;;5035719;28;20029;-80
2021/10/21 12:48:34;;;;;;;5.45;1.52;;;15.10;88.50;;;;;;5022217;28;20030;-79
2021/10/21 12:51:15;;;;;;;4.60;1.10;;;15.10;88.60;;;;;;5014430;28;20033;-80
2021/10/21 12:53:53;;;;;;;4.28;0.90;;;15.10;88.60;;;;;;5014274;28;20116;-79
2021/10/21 12:56:25;;;;;;;3.45;0.98;;;15.10;88.60;;;;;;5016764;28;20039;-79